createdAt,value
2022-09-12T00:01:47.236Z,61.17
2022-09-12T00:04:16.189Z,61.10
2022-09-12T00:06:45.428Z,60.79
2022-09-12T00:09:15.685Z,60.74
2022-09-12T00:11:46.855Z,61.06
2022-09-12T00:14:19.200Z,61.14
2022-09-12T00:16:48.267Z,60.98
2022-09-12T00:19:17.045Z,61.29
2022-09-12T00:21:45.789Z,61.46
2022-09-12T00:24:14.580Z,61.72
2022-09-12T00:26:43.423Z,61.84
2022-09-12T00:29:17.363Z,61.82
2022-09-12T00:31:46.479Z,61.78
2022-09-12T00:34:15.503Z,61.77
2022-09-12T00:36:44.408Z,62.06
2022-09-12T00:39:17.541Z,61.70
2022-09-12T00:41:46.541Z,61.56
2022-09-12T00:44:24.217Z,61.60
2022-09-12T00:47:11.225Z,61.77
2022-09-12T00:50:11.813Z,61.91
2022-09-12T00:53:00.823Z,62.00
2022-09-12T00:55:35.967Z,62.17
2022-09-12T00:58:09.508Z,62.15
2022-09-12T01:00:39.150Z,62.32
2022-09-12T01:03:15.298Z,62.12
2022-09-12T01:05:53.996Z,62.03
2022-09-12T01:08:23.773Z,61.89
2022-09-12T01:10:53.563Z,62.03
2022-09-12T01:13:23.182Z,61.67
2022-09-12T01:15:53.311Z,61.67
2022-09-12T01:19:00.418Z,61.52
2022-09-12T01:21:46.446Z,61.81
2022-09-12T01:24:49.697Z,61.55
2022-09-12T01:27:46.104Z,61.65
2022-09-12T01:30:40.971Z,61.62
2022-09-12T01:34:00.321Z,61.34
2022-09-12T01:36:51.785Z,61.23
2022-09-12T01:39:44.555Z,61.21
2022-09-12T01:42:21.219Z,61.26
2022-09-12T01:45:12.580Z,61.21
2022-09-12T01:47:50.999Z,61.22
2022-09-12T01:50:25.806Z,60.88
2022-09-12T01:53:00.495Z,61.06
2022-09-12T01:55:47.371Z,60.52
2022-09-12T01:58:23.587Z,60.80
2022-09-12T02:00:57.510Z,60.54
2022-09-12T02:03:32.108Z,60.29
2022-09-12T02:06:34.222Z,59.92
2022-09-12T02:09:21.472Z,59.96
2022-09-12T02:11:53.307Z,59.78
2022-09-12T02:14:29.746Z,60.25
2022-09-12T02:17:08.028Z,60.32
2022-09-12T02:20:26.037Z,60.44
2022-09-12T02:23:10.643Z,60.61
2022-09-12T02:25:43.878Z,60.16
2022-09-12T02:28:25.189Z,60.25
2022-09-12T02:31:33.542Z,60.16
2022-09-12T02:34:16.859Z,60.12
2022-09-12T02:37:27.793Z,59.46
2022-09-12T02:39:57.712Z,59.68
2022-09-12T02:42:26.598Z,59.55
2022-09-12T02:44:57.787Z,59.18
2022-09-12T02:47:29.540Z,58.90
2022-09-12T02:50:00.274Z,57.67
2022-09-12T02:52:30.445Z,57.02
2022-09-12T02:55:00.328Z,56.64
2022-09-12T02:57:29.137Z,55.63
2022-09-12T03:00:01.291Z,55.44
2022-09-12T03:02:52.537Z,54.30
2022-09-12T03:05:27.863Z,52.85
2022-09-12T03:08:02.787Z,51.33
2022-09-12T03:11:07.857Z,51.39
2022-09-12T03:14:09.257Z,51.06
2022-09-12T03:16:45.858Z,52.00
2022-09-12T03:19:20.542Z,50.86
2022-09-12T03:21:58.002Z,50.65
2022-09-12T03:24:48.763Z,48.27
2022-09-12T03:27:27.076Z,46.02
2022-09-12T03:29:58.287Z,44.94
2022-09-12T03:32:50.169Z,44.23
2022-09-12T03:35:23.118Z,43.09
2022-09-12T03:37:53.673Z,40.00
2022-09-12T03:40:22.454Z,40.06
2022-09-12T03:42:51.261Z,40.22
2022-09-12T03:45:20.192Z,40.42
2022-09-12T03:47:48.945Z,41.23
2022-09-12T03:50:18.132Z,41.02
2022-09-12T03:52:46.935Z,40.37
2022-09-12T03:55:16.145Z,40.90
2022-09-12T03:57:45.209Z,41.41
2022-09-12T04:00:19.506Z,41.16
2022-09-12T04:02:48.829Z,39.66
2022-09-12T04:05:17.615Z,39.47
2022-09-12T04:07:48.090Z,39.44
2022-09-12T04:10:16.925Z,38.64
2022-09-12T04:12:46.134Z,37.45
2022-09-12T04:15:15.102Z,38.32
2022-09-12T04:17:43.867Z,39.10
2022-09-12T04:20:13.823Z,40.41
2022-09-12T04:22:42.557Z,41.39
2022-09-12T04:25:12.192Z,42.13
2022-09-12T04:27:40.938Z,42.85
2022-09-12T04:30:10.154Z,42.97
2022-09-12T04:32:38.896Z,41.56
2022-09-12T04:35:07.771Z,40.29
2022-09-12T04:37:36.596Z,38.90
2022-09-12T04:40:06.056Z,38.08
2022-09-12T04:42:34.871Z,37.90
2022-09-12T04:45:04.256Z,38.52
2022-09-12T04:47:32.976Z,38.92
2022-09-12T04:50:01.825Z,38.74
2022-09-12T04:52:31.511Z,39.10
2022-09-12T04:55:00.252Z,40.50
2022-09-12T04:57:28.947Z,40.96
2022-09-12T04:59:57.849Z,41.30
2022-09-12T05:02:27.454Z,41.33
2022-09-12T05:04:56.427Z,41.70
2022-09-12T05:07:25.184Z,42.24
2022-09-12T05:09:54.006Z,42.72
2022-09-12T05:12:22.728Z,42.35
2022-09-12T05:14:51.445Z,42.01
2022-09-12T05:17:20.133Z,42.32
2022-09-12T05:19:49.157Z,42.40
2022-09-12T05:22:17.907Z,42.86
2022-09-12T05:24:50.431Z,42.80
2022-09-12T05:27:19.645Z,43.14
2022-09-12T05:29:48.517Z,43.20
2022-09-12T05:32:17.250Z,42.44
2022-09-12T05:34:46.038Z,41.76
2022-09-12T05:37:14.750Z,41.80
2022-09-12T05:39:43.570Z,41.86
2022-09-12T05:42:12.773Z,41.55
2022-09-12T05:44:41.812Z,41.61
2022-09-12T05:47:13.069Z,42.07
2022-09-12T05:49:42.224Z,42.87
2022-09-12T05:52:11.112Z,43.40
2022-09-12T05:54:39.890Z,44.27
2022-09-12T05:57:08.719Z,44.39
2022-09-12T05:59:37.681Z,44.55
2022-09-12T06:02:06.731Z,44.48
2022-09-12T06:04:36.063Z,43.68
2022-09-12T06:07:05.276Z,43.10
2022-09-12T06:09:33.980Z,43.09
2022-09-12T06:12:02.972Z,43.20
2022-09-12T06:14:31.703Z,42.50
2022-09-12T06:17:00.407Z,42.84
2022-09-12T06:19:29.249Z,43.58
2022-09-12T06:21:58.540Z,43.09
2022-09-12T06:24:28.009Z,43.26
2022-09-12T06:26:56.711Z,43.88
2022-09-12T06:29:25.517Z,44.21
2022-09-12T06:31:54.357Z,44.75
2022-09-12T06:34:23.162Z,45.73
2022-09-12T06:36:51.875Z,46.37
2022-09-12T06:39:23.234Z,47.20
2022-09-12T06:41:53.440Z,47.39
2022-09-12T06:44:34.769Z,48.03
2022-09-12T06:47:21.854Z,48.47
2022-09-12T06:49:51.534Z,48.44
2022-09-12T06:52:20.266Z,48.31
2022-09-12T06:54:49.106Z,47.34
2022-09-12T06:57:18.460Z,45.64
2022-09-12T06:59:47.171Z,44.46
2022-09-12T07:02:16.770Z,44.03
2022-09-12T07:04:46.317Z,44.11
2022-09-12T07:07:15.298Z,42.98
2022-09-12T07:09:45.181Z,41.90
2022-09-12T07:12:13.965Z,41.13
2022-09-12T07:14:42.618Z,40.76
2022-09-12T07:17:13.065Z,40.37
2022-09-12T07:19:42.075Z,40.88
2022-09-12T07:22:10.848Z,41.27
2022-09-12T07:24:40.658Z,41.84
2022-09-12T07:27:09.419Z,42.29
2022-09-12T07:29:38.386Z,42.88
2022-09-12T07:32:08.169Z,43.09
2022-09-12T07:34:36.995Z,42.08
2022-09-12T07:37:06.511Z,40.64
2022-09-12T07:39:35.240Z,39.98
2022-09-12T07:42:04.111Z,39.42
2022-09-12T07:44:33.217Z,38.68
2022-09-12T07:47:02.130Z,38.10
2022-09-12T07:49:31.153Z,38.62
2022-09-12T07:51:59.911Z,39.18
2022-09-12T07:54:28.648Z,39.59
2022-09-12T07:56:58.652Z,40.26
2022-09-12T07:59:50.919Z,40.70
2022-09-12T08:02:17.781Z,40.97
2022-09-12T08:04:49.227Z,40.99
2022-09-12T08:07:19.740Z,40.94
2022-09-12T08:09:48.841Z,40.73
2022-09-12T08:12:18.450Z,40.75
2022-09-12T08:14:47.639Z,40.92
2022-09-12T08:17:16.456Z,41.08
2022-09-12T08:19:45.529Z,40.92
2022-09-12T08:22:14.307Z,41.45
2022-09-12T08:24:43.307Z,41.90
2022-09-12T08:27:12.060Z,42.13
2022-09-12T08:29:41.077Z,42.32
2022-09-12T08:32:09.984Z,42.72
2022-09-12T08:34:38.921Z,43.31
2022-09-12T08:37:07.660Z,43.63
2022-09-12T08:39:36.404Z,43.89
2022-09-12T08:42:07.217Z,44.47
2022-09-12T08:44:45.816Z,44.80
2022-09-12T08:47:32.282Z,45.13
2022-09-12T08:50:12.620Z,45.25
2022-09-12T08:53:04.086Z,45.26
2022-09-12T08:55:41.959Z,45.32
2022-09-12T08:58:18.414Z,45.39
2022-09-12T09:01:02.751Z,45.46
2022-09-12T09:03:53.131Z,45.04
2022-09-12T09:06:59.871Z,44.75
2022-09-12T09:09:56.679Z,44.95
2022-09-12T09:12:32.223Z,45.05
2022-09-12T09:15:26.069Z,45.50
2022-09-12T09:18:19.825Z,45.80
2022-09-12T09:21:03.815Z,46.09
2022-09-12T09:23:39.857Z,46.33
2022-09-12T09:26:27.129Z,46.87
2022-09-12T09:29:20.444Z,46.81
2022-09-12T09:32:01.881Z,47.30
2022-09-12T09:34:34.876Z,47.51
2022-09-12T09:37:31.192Z,47.57
2022-09-12T09:40:17.492Z,47.77
2022-09-12T09:43:12.891Z,47.91
2022-09-12T09:45:44.595Z,48.14
2022-09-12T09:48:32.869Z,48.48
2022-09-12T09:51:05.693Z,48.65
2022-09-12T09:53:53.746Z,48.93
2022-09-12T09:56:31.431Z,49.09
2022-09-12T09:59:14.257Z,49.32
2022-09-12T10:01:58.288Z,49.42
2022-09-12T10:04:30.214Z,49.53
2022-09-12T10:07:02.529Z,49.84
2022-09-12T10:09:34.043Z,49.98
2022-09-12T10:12:22.910Z,50.14
2022-09-12T10:15:01.275Z,50.10
2022-09-12T10:17:44.701Z,50.28
2022-09-12T10:20:34.822Z,50.46
2022-09-12T10:23:30.046Z,50.64
2022-09-12T10:26:02.633Z,50.97
2022-09-12T10:28:50.133Z,51.06
2022-09-12T10:31:32.431Z,51.28
2022-09-12T10:34:02.007Z,51.26
2022-09-12T10:36:39.621Z,51.47
2022-09-12T10:39:18.053Z,51.60
2022-09-12T10:41:48.400Z,51.76
2022-09-12T10:44:26.727Z,51.82
2022-09-12T10:46:56.380Z,51.67
2022-09-12T10:49:38.510Z,52.02
2022-09-12T10:52:25.199Z,52.24
2022-09-12T10:54:55.281Z,52.15
2022-09-12T10:58:01.827Z,52.27
2022-09-12T11:00:35.405Z,52.18
2022-09-12T11:03:23.201Z,52.49
2022-09-12T11:05:57.224Z,52.61
2022-09-12T11:08:38.262Z,52.80
2022-09-12T11:11:49.425Z,52.93
2022-09-12T11:14:44.866Z,52.87
2022-09-12T11:17:44.310Z,53.06
2022-09-12T11:20:50.608Z,53.05
2022-09-12T11:23:34.498Z,52.70
2022-09-12T11:26:19.944Z,53.31
2022-09-12T11:29:14.559Z,53.71
2022-09-12T11:32:09.754Z,54.05
2022-09-12T11:35:15.181Z,54.02
2022-09-12T11:38:14.310Z,54.44
2022-09-12T11:40:58.090Z,54.90
2022-09-12T11:43:39.201Z,55.00
2022-09-12T11:46:18.884Z,55.24
2022-09-12T11:49:16.187Z,55.11
2022-09-12T11:52:07.397Z,55.51
2022-09-12T11:54:51.389Z,55.20
2022-09-12T11:57:28.796Z,55.25
2022-09-12T12:00:09.893Z,54.84
2022-09-12T12:03:19.134Z,53.96
2022-09-12T12:05:59.857Z,53.41
2022-09-12T12:08:31.630Z,53.00
2022-09-12T12:11:02.957Z,52.98
2022-09-12T12:13:41.281Z,52.79
2022-09-12T12:16:20.371Z,52.79
2022-09-12T12:19:10.613Z,52.27
2022-09-12T12:22:23.311Z,51.81
2022-09-12T12:25:05.567Z,51.48
2022-09-12T12:28:06.095Z,51.54
2022-09-12T12:31:02.055Z,51.24
2022-09-12T12:33:30.848Z,50.97
2022-09-12T12:36:02.973Z,51.34
2022-09-12T12:38:43.827Z,51.17
2022-09-12T12:41:18.446Z,51.21
2022-09-12T12:43:52.931Z,51.29
2022-09-12T12:46:27.713Z,51.20
2022-09-12T12:49:18.555Z,51.27
2022-09-12T12:52:02.259Z,51.00
2022-09-12T12:54:46.119Z,51.10
2022-09-12T12:57:21.035Z,51.42
2022-09-12T13:00:30.654Z,51.09
2022-09-12T13:03:08.801Z,51.51
2022-09-12T13:06:01.723Z,51.27
2022-09-12T13:09:00.762Z,51.64
2022-09-12T13:11:37.515Z,51.72
2022-09-12T13:14:47.613Z,51.97
2022-09-12T13:17:52.686Z,52.14
2022-09-12T13:20:28.993Z,52.57
2022-09-12T13:22:58.825Z,53.13
2022-09-12T13:25:31.497Z,53.53
2022-09-12T13:28:12.592Z,54.07
2022-09-12T13:30:44.908Z,54.00
2022-09-12T13:33:49.515Z,54.20
2022-09-12T13:36:36.658Z,55.24
2022-09-12T13:39:12.835Z,57.06
2022-09-12T13:42:01.731Z,58.08
2022-09-12T13:44:31.941Z,58.33
2022-09-12T13:47:02.639Z,59.09
2022-09-12T13:49:36.341Z,58.94
2022-09-12T13:52:20.702Z,59.27
2022-09-12T13:54:52.779Z,59.05
2022-09-12T13:57:42.809Z,59.05
2022-09-12T14:00:20.929Z,59.15
2022-09-12T14:02:50.015Z,59.25
2022-09-12T14:05:24.850Z,59.64
2022-09-12T14:08:05.209Z,59.73
2022-09-12T14:10:39.981Z,59.67
2022-09-12T14:13:20.581Z,60.09
2022-09-12T14:15:55.572Z,59.98
2022-09-12T14:18:31.948Z,60.22
2022-09-12T14:21:27.096Z,60.76
2022-09-12T14:23:56.140Z,60.51
2022-09-12T14:26:26.896Z,60.96
2022-09-12T14:28:56.196Z,60.95
2022-09-12T14:31:36.305Z,61.17
2022-09-12T14:34:19.569Z,61.29
2022-09-12T14:36:52.679Z,61.12
2022-09-12T14:39:40.745Z,61.51
2022-09-12T14:42:24.657Z,61.37
2022-09-12T14:45:01.471Z,61.38
2022-09-12T14:47:44.488Z,61.38
2022-09-12T14:50:26.817Z,61.55
2022-09-12T14:53:08.968Z,61.32
2022-09-12T14:55:50.818Z,61.43
2022-09-12T14:58:19.534Z,61.48
2022-09-12T15:01:03.103Z,61.49
2022-09-12T15:03:36.746Z,61.76
2022-09-12T15:06:10.504Z,61.76
2022-09-12T15:08:39.425Z,61.84
2022-09-12T15:11:08.370Z,61.88
2022-09-12T15:13:42.117Z,62.01
2022-09-12T15:16:12.657Z,62.36
2022-09-12T15:18:41.455Z,62.56
2022-09-12T15:21:22.088Z,63.00
2022-09-12T15:23:52.379Z,63.16
2022-09-12T15:26:25.212Z,63.41
2022-09-12T15:28:54.373Z,63.96
2022-09-12T15:31:27.488Z,64.43
2022-09-12T15:33:58.303Z,64.54
2022-09-12T15:36:29.119Z,64.45
2022-09-12T15:38:58.903Z,65.00
2022-09-12T15:41:39.053Z,65.04
2022-09-12T15:44:13.028Z,65.25
2022-09-12T15:46:41.908Z,65.15
2022-09-12T15:49:11.123Z,65.23
2022-09-12T15:51:40.728Z,64.93
2022-09-12T15:54:13.642Z,64.94
2022-09-12T15:56:42.456Z,64.93
2022-09-12T15:59:11.236Z,64.80
2022-09-12T16:01:41.327Z,64.51
2022-09-12T16:04:27.080Z,64.66
2022-09-12T16:06:57.436Z,64.70
2022-09-12T16:09:26.295Z,64.57
2022-09-12T16:11:55.131Z,64.56
2022-09-12T16:14:24.003Z,64.89
2022-09-12T16:16:55.996Z,64.99
2022-09-12T16:19:26.328Z,65.21
2022-09-12T16:21:55.307Z,65.20
2022-09-12T16:24:24.194Z,65.70
2022-09-12T16:26:52.907Z,65.55
2022-09-12T16:29:21.973Z,65.59
2022-09-12T16:31:51.187Z,66.01
2022-09-12T16:34:19.982Z,65.96
2022-09-12T16:36:48.880Z,65.80
2022-09-12T16:39:17.633Z,66.20
2022-09-12T16:41:46.518Z,66.24
2022-09-12T16:44:15.541Z,66.15
2022-09-12T16:46:44.483Z,66.50
2022-09-12T16:49:13.493Z,66.52
2022-09-12T16:51:45.484Z,66.90
2022-09-12T16:54:15.393Z,67.33
2022-09-12T16:56:45.119Z,67.31
2022-09-12T16:59:16.850Z,67.38
2022-09-12T17:01:46.640Z,67.60
2022-09-12T17:04:15.530Z,67.68
2022-09-12T17:06:44.660Z,67.76
2022-09-12T17:09:18.898Z,67.81
2022-09-12T17:11:48.503Z,67.99
2022-09-12T17:14:17.823Z,68.06
2022-09-12T17:16:52.077Z,67.99
2022-09-12T17:19:26.124Z,68.14
2022-09-12T17:21:55.538Z,68.20
2022-09-12T17:24:24.505Z,68.14
2022-09-12T17:26:54.242Z,68.55
2022-09-12T17:29:22.969Z,68.49
2022-09-12T17:31:51.641Z,68.38
2022-09-12T17:34:20.649Z,68.35
2022-09-12T17:36:49.453Z,68.38
2022-09-12T17:39:18.187Z,68.41
2022-09-12T17:41:46.903Z,68.63
2022-09-12T17:44:16.488Z,68.60
2022-09-12T17:46:45.354Z,68.73
2022-09-12T17:49:17.201Z,68.80
2022-09-12T17:51:46.297Z,68.64
2022-09-12T17:54:18.248Z,68.80
2022-09-12T17:56:50.224Z,68.84
2022-09-12T17:59:24.893Z,68.95
2022-09-12T18:02:12.754Z,68.74
2022-09-12T18:04:42.781Z,68.58
2022-09-12T18:07:11.544Z,68.81
2022-09-12T18:09:41.477Z,68.64
2022-09-12T18:12:10.655Z,68.56
2022-09-12T18:14:39.432Z,68.39
2022-09-12T18:17:09.499Z,68.56
2022-09-12T18:19:39.207Z,68.47
2022-09-12T18:22:08.030Z,68.55
2022-09-12T18:24:37.049Z,68.63
2022-09-12T18:27:05.791Z,68.65
2022-09-12T18:29:34.499Z,68.99
2022-09-12T18:32:03.358Z,68.86
2022-09-12T18:34:32.079Z,68.95
2022-09-12T18:37:02.518Z,68.94
2022-09-12T18:39:31.286Z,68.49
2022-09-12T18:42:00.005Z,68.25
2022-09-12T18:44:28.786Z,68.33
2022-09-12T18:46:57.553Z,67.95
2022-09-12T18:49:26.454Z,67.98
2022-09-12T18:51:55.139Z,67.77
2022-09-12T18:54:24.674Z,68.00
2022-09-12T18:56:53.407Z,67.63
2022-09-12T18:59:22.100Z,67.90
2022-09-12T19:01:51.845Z,67.89
2022-09-12T19:04:21.109Z,67.88
2022-09-12T19:06:50.555Z,68.11
2022-09-12T19:09:21.605Z,68.13
2022-09-12T19:11:50.597Z,67.97
2022-09-12T19:14:23.418Z,68.29
2022-09-12T19:16:52.776Z,68.22
2022-09-12T19:19:22.084Z,68.39
2022-09-12T19:21:50.842Z,68.27
2022-09-12T19:24:19.732Z,67.68
2022-09-12T19:26:50.249Z,68.22
2022-09-12T19:29:19.533Z,67.96
2022-09-12T19:31:48.319Z,67.87
2022-09-12T19:34:17.060Z,68.08
2022-09-12T19:36:47.088Z,68.16
2022-09-12T19:39:18.200Z,68.28
2022-09-12T19:41:47.257Z,68.05
2022-09-12T19:44:16.227Z,67.96
2022-09-12T19:46:45.046Z,68.14
2022-09-12T19:49:14.026Z,67.99
2022-09-12T19:51:42.832Z,68.08
2022-09-12T19:54:11.750Z,68.33
2022-09-12T19:56:40.540Z,68.19
2022-09-12T19:59:09.423Z,68.51
2022-09-12T20:01:40.023Z,68.27
2022-09-12T20:04:09.102Z,68.73
2022-09-12T20:06:38.068Z,68.73
2022-09-12T20:09:06.818Z,68.79
2022-09-12T20:11:36.004Z,68.56
2022-09-12T20:14:04.708Z,68.40
2022-09-12T20:16:33.967Z,69.15
2022-09-12T20:19:07.694Z,68.97
2022-09-12T20:21:37.516Z,69.11
2022-09-12T20:24:10.864Z,69.03
2022-09-12T20:26:40.797Z,69.01
2022-09-12T20:29:10.677Z,68.63
2022-09-12T20:31:41.345Z,68.63
2022-09-12T20:34:15.891Z,68.03
2022-09-12T20:36:45.018Z,68.18
2022-09-12T20:39:18.438Z,67.74
2022-09-12T20:41:48.715Z,67.79
2022-09-12T20:44:18.012Z,67.86
2022-09-12T20:46:47.410Z,67.95
2022-09-12T20:49:16.346Z,68.16
2022-09-12T20:51:45.518Z,67.90
2022-09-12T20:54:14.305Z,68.06
2022-09-12T20:56:43.314Z,67.77
2022-09-12T20:59:15.181Z,67.41
2022-09-12T21:01:44.737Z,67.33
2022-09-12T21:04:15.266Z,67.49
2022-09-12T21:06:44.185Z,67.54
2022-09-12T21:09:12.961Z,67.72
2022-09-12T21:11:41.818Z,67.41
2022-09-12T21:14:10.587Z,67.46
2022-09-12T21:16:39.338Z,67.29
2022-09-12T21:19:08.290Z,67.15
2022-09-12T21:21:37.613Z,67.46
2022-09-12T21:24:06.715Z,67.07
2022-09-12T21:26:35.451Z,67.14
2022-09-12T21:29:04.344Z,66.99
2022-09-12T21:31:34.269Z,66.83
2022-09-12T21:34:03.478Z,67.06
2022-09-12T21:36:33.318Z,66.73
2022-09-12T21:39:02.163Z,66.92
2022-09-12T21:41:31.204Z,66.92
2022-09-12T21:43:59.960Z,66.63
2022-09-12T21:46:28.915Z,66.73
2022-09-12T21:48:57.757Z,66.63
2022-09-12T21:51:26.489Z,66.47
2022-09-12T21:53:55.206Z,66.49
2022-09-12T21:56:24.527Z,66.12
2022-09-12T21:58:53.252Z,65.97
2022-09-12T22:01:22.694Z,65.78
2022-09-12T22:03:52.732Z,65.90
2022-09-12T22:06:22.634Z,65.62
2022-09-12T22:08:51.754Z,65.59
2022-09-12T22:11:21.349Z,65.43
2022-09-12T22:13:50.078Z,65.45
2022-09-12T22:16:19.007Z,65.97
2022-09-12T22:18:47.916Z,66.15
2022-09-12T22:21:20.590Z,66.29
2022-09-12T22:24:10.152Z,66.08
2022-09-12T22:26:44.048Z,66.06
2022-09-12T22:29:16.777Z,66.24
2022-09-12T22:31:45.573Z,65.91
2022-09-12T22:34:15.005Z,66.21
2022-09-12T22:36:43.817Z,66.09
2022-09-12T22:39:12.837Z,66.18
2022-09-12T22:41:41.905Z,66.28
2022-09-12T22:44:11.772Z,65.99
2022-09-12T22:46:41.005Z,65.82
2022-09-12T22:49:10.082Z,65.81
2022-09-12T22:51:39.491Z,65.66
2022-09-12T22:54:10.545Z,65.79
2022-09-12T22:56:40.612Z,65.46
2022-09-12T22:59:09.470Z,65.50
2022-09-12T23:01:38.665Z,65.11
2022-09-12T23:04:07.529Z,65.10
2022-09-12T23:06:36.263Z,65.14
2022-09-12T23:09:05.344Z,64.79
2022-09-12T23:11:34.198Z,64.62
2022-09-12T23:14:03.914Z,64.91
2022-09-12T23:16:32.783Z,64.96
2022-09-12T23:19:01.713Z,64.44
2022-09-12T23:21:30.685Z,64.54
2022-09-12T23:23:59.889Z,64.34
2022-09-12T23:26:30.217Z,63.92
2022-09-12T23:29:02.530Z,64.02
2022-09-12T23:31:32.957Z,63.88
2022-09-12T23:34:04.430Z,63.68
2022-09-12T23:36:33.521Z,63.62
2022-09-12T23:39:02.954Z,63.17
2022-09-12T23:41:32.085Z,63.06
2022-09-12T23:44:01.232Z,63.13
2022-09-12T23:46:31.250Z,63.08
2022-09-12T23:49:03.123Z,62.71
2022-09-12T23:51:32.180Z,62.56
2022-09-12T23:54:02.096Z,62.30
2022-09-12T23:56:31.307Z,62.01
2022-09-12T23:59:00.502Z,61.58
